Time;durP1;ratioP1;P1;durP2;ratioP2;P2;SDS_P1;SDS_P2;PMS_P1;PMS_P2;Temp;Humidity;BMP_temperature;BMP_pressure;BME280_temperature;BME280_humidity;BME280_pressure;Samples;Min_cycle;Max_cycle;Signal;HPM_P1;HPM_P2
2024/01/02 00:02:16;;;;;;;30.70;17.97;;;;;;;;;;5013399;28;20098;-67
2024/01/02 00:04:41;;;;;;;26.93;18.60;;;;;;;;;;5013150;28;20033;-67
2024/01/02 00:07:07;;;;;;;24.80;17.50;;;;;;;;;;5012801;28;20026;-67
2024/01/02 00:09:33;;;;;;;32.83;18.63;;;;;;;;;;5011686;28;20014;-67
2024/01/02 00:12:00;;;;;;;41.07;19.17;;;;;;;;;;5013285;28;20038;-68
2024/01/02 00:14:28;;;;;;;28.70;17.83;;;;;;;;;;5012811;28;20138;-67
2024/01/02 00:16:54;;;;;;;28.40;18.83;;;;;;;;;;5012935;28;20109;-67
2024/01/02 00:19:20;;;;;;;29.70;18.13;;;;;;;;;;5011422;28;20036;-67
2024/01/02 00:21:46;;;;;;;27.97;16.53;;;;;;;;;;5013015;28;20034;-67
2024/01/02 00:24:12;;;;;;;25.27;16.83;;;;;;;;;;5012722;28;20151;-67
2024/01/02 00:26:39;;;;;;;27.57;18.40;;;;;;;;;;5013322;28;20017;-67
2024/01/02 00:29:05;;;;;;;25.33;17.33;;;;;;;;;;5024263;28;20380;-68
2024/01/02 00:31:31;;;;;;;29.23;18.47;;;;;;;;;;5012851;28;20025;-67
2024/01/02 00:33:57;;;;;;;24.90;17.83;;;;;;;;;;5012620;28;20054;-67
2024/01/02 00:36:23;;;;;;;25.33;18.13;;;;;;;;;;5012582;28;20032;-67
2024/01/02 00:38:49;;;;;;;26.53;18.33;;;;;;;;;;5002430;28;20076;-67
2024/01/02 00:47:57;;;;;;;23.97;17.10;;;;;;;;;;4997019;28;20057;-67
2024/01/02 00:50:23;;;;;;;23.13;17.17;;;;;;;;;;5009195;28;20029;-67
2024/01/02 00:52:49;;;;;;;27.40;17.37;;;;;;;;;;5012532;28;20037;-67
2024/01/02 00:55:15;;;;;;;24.70;17.57;;;;;;;;;;5012317;28;20072;-67
2024/01/02 00:57:41;;;;;;;24.13;17.67;;;;;;;;;;5010959;28;20026;-68
2024/01/02 01:00:08;;;;;;;26.30;16.40;;;;;;;;;;5012269;28;20384;-67
2024/01/02 01:02:34;;;;;;;27.97;16.20;;;;;;;;;;5012266;28;20026;-67
2024/01/02 01:05:00;;;;;;;20.23;15.43;;;;;;;;;;5012231;28;20061;-67
2024/01/02 01:07:26;;;;;;;22.27;15.40;;;;;;;;;;5018138;28;20029;-67
2024/01/02 01:09:52;;;;;;;20.73;15.20;;;;;;;;;;5019892;28;20022;-67
2024/01/02 01:12:18;;;;;;;22.70;15.83;;;;;;;;;;5011974;28;20068;-67
2024/01/02 01:14:44;;;;;;;18.97;14.00;;;;;;;;;;5011996;28;20075;-67
2024/01/02 01:17:11;;;;;;;21.87;15.67;;;;;;;;;;5011738;28;20030;-67
2024/01/02 01:19:37;;;;;;;23.43;15.23;;;;;;;;;;5011206;28;20029;-67
2024/01/02 01:22:03;;;;;;;22.90;15.30;;;;;;;;;;5010474;28;20038;-67
2024/01/02 01:24:29;;;;;;;20.33;15.13;;;;;;;;;;5011813;28;20392;-67
2024/01/02 01:26:55;;;;;;;21.43;15.83;;;;;;;;;;5015133;28;20026;-67
2024/01/02 01:29:22;;;;;;;19.73;14.30;;;;;;;;;;5022544;28;20179;-67
2024/01/02 01:31:48;;;;;;;17.90;13.80;;;;;;;;;;5011757;28;20465;-67
2024/01/02 01:34:14;;;;;;;18.83;14.07;;;;;;;;;;5011940;28;20076;-67
2024/01/02 01:36:40;;;;;;;20.07;15.10;;;;;;;;;;5012019;28;20026;-67
2024/01/02 01:39:06;;;;;;;19.77;14.50;;;;;;;;;;5011658;28;20069;-67
2024/01/02 01:41:32;;;;;;;23.23;15.33;;;;;;;;;;5011742;28;20061;-67
2024/01/02 01:43:59;;;;;;;18.00;13.70;;;;;;;;;;5011874;28;20085;-67
2024/01/02 01:46:26;;;;;;;18.90;13.70;;;;;;;;;;5011680;28;20026;-67
2024/01/02 01:48:53;;;;;;;18.97;14.10;;;;;;;;;;5011535;28;20215;-67
2024/01/02 01:51:19;;;;;;;20.23;14.70;;;;;;;;;;5011885;28;20109;-68
2024/01/02 01:53:46;;;;;;;18.17;13.13;;;;;;;;;;5011902;28;20029;-67
2024/01/02 01:56:13;;;;;;;17.63;13.97;;;;;;;;;;5020407;28;20483;-67
2024/01/02 01:58:39;;;;;;;19.50;14.30;;;;;;;;;;5030236;28;20022;-67
2024/01/02 02:01:05;;;;;;;15.70;12.53;;;;;;;;;;5025301;28;20392;-67
2024/01/02 02:03:32;;;;;;;20.50;14.70;;;;;;;;;;5013272;28;20030;-67
2024/01/02 02:05:58;;;;;;;17.63;13.53;;;;;;;;;;5022781;28;20029;-67
2024/01/02 02:08:24;;;;;;;19.93;14.83;;;;;;;;;;5011589;28;20365;-67
2024/01/02 02:10:50;;;;;;;19.30;14.07;;;;;;;;;;5011559;28;20018;-68
2024/01/02 02:13:16;;;;;;;19.67;13.93;;;;;;;;;;5024224;28;20040;-67
2024/01/02 02:15:42;;;;;;;17.60;13.63;;;;;;;;;;5012322;28;20029;-67
2024/01/02 02:18:09;;;;;;;17.97;14.20;;;;;;;;;;5011439;28;20041;-67
2024/01/02 02:20:35;;;;;;;17.83;14.07;;;;;;;;;;5009983;28;20026;-67
2024/01/02 02:23:01;;;;;;;19.00;13.40;;;;;;;;;;5011321;28;20034;-68
2024/01/02 02:25:27;;;;;;;19.07;14.00;;;;;;;;;;5011275;28;20049;-67
2024/01/02 02:27:53;;;;;;;18.87;13.07;;;;;;;;;;5011203;28;20459;-67
2024/01/02 02:30:19;;;;;;;17.37;13.57;;;;;;;;;;5014328;28;20034;-67
2024/01/02 02:32:45;;;;;;;20.60;14.93;;;;;;;;;;5009768;28;20021;-67
2024/01/02 02:35:11;;;;;;;17.80;14.53;;;;;;;;;;5008688;28;20089;-67
2024/01/02 02:37:37;;;;;;;18.53;14.53;;;;;;;;;;5011712;28;20026;-67
2024/01/02 02:40:03;;;;;;;22.37;14.97;;;;;;;;;;5012207;28;20507;-67
2024/01/02 02:42:30;;;;;;;21.07;15.07;;;;;;;;;;5013472;28;20034;-67
2024/01/02 02:44:56;;;;;;;19.83;14.37;;;;;;;;;;5014006;28;20045;-68
2024/01/02 02:47:22;;;;;;;22.43;15.53;;;;;;;;;;5017439;28;20484;-67
2024/01/02 02:49:49;;;;;;;20.00;15.23;;;;;;;;;;5028910;28;20028;-68
2024/01/02 02:52:16;;;;;;;21.80;15.10;;;;;;;;;;5032349;28;20483;-68
2024/01/02 02:54:42;;;;;;;22.93;15.47;;;;;;;;;;5024750;28;20476;-68
2024/01/02 02:57:08;;;;;;;20.30;14.87;;;;;;;;;;5013823;28;20032;-67
2024/01/02 02:59:34;;;;;;;22.17;15.70;;;;;;;;;;5013963;28;20026;-67
2024/01/02 03:02:00;;;;;;;22.10;16.30;;;;;;;;;;5026424;28;20041;-67
2024/01/02 03:04:26;;;;;;;21.40;15.67;;;;;;;;;;5014591;28;20018;-67
2024/01/02 03:06:52;;;;;;;21.80;15.07;;;;;;;;;;5013751;28;20025;-67
2024/01/02 03:09:18;;;;;;;23.33;15.77;;;;;;;;;;5013851;28;20014;-67
2024/01/02 03:11:44;;;;;;;21.23;15.40;;;;;;;;;;5013597;28;20137;-67
2024/01/02 03:14:10;;;;;;;25.37;16.23;;;;;;;;;;5013337;28;20030;-67
2024/01/02 03:16:36;;;;;;;22.33;15.50;;;;;;;;;;5013397;28;20040;-67
2024/01/02 03:19:02;;;;;;;22.70;16.57;;;;;;;;;;5026208;28;20106;-67
2024/01/02 03:21:28;;;;;;;25.67;15.83;;;;;;;;;;5032951;28;20468;-67
2024/01/02 03:23:58;;;;;;;21.73;15.93;;;;;;;;;;5021045;28;20076;-67
2024/01/02 03:26:24;;;;;;;22.57;16.03;;;;;;;;;;5013077;28;20021;-67
2024/01/02 03:28:50;;;;;;;21.67;15.67;;;;;;;;;;5013611;28;20029;-67
2024/01/02 03:31:16;;;;;;;24.97;15.67;;;;;;;;;;5013053;28;20032;-67
2024/01/02 03:33:42;;;;;;;25.27;16.90;;;;;;;;;;5011836;28;20026;-68
2024/01/02 03:36:12;;;;;;;23.87;15.87;;;;;;;;;;5013034;28;20472;-67
2024/01/02 03:38:38;;;;;;;24.93;16.70;;;;;;;;;;5006339;28;20121;-67
2024/01/02 03:41:04;;;;;;;26.00;15.97;;;;;;;;;;5012382;28;20498;-67
2024/01/02 03:43:30;;;;;;;20.40;14.77;;;;;;;;;;5012718;28;20029;-67
2024/01/02 03:45:56;;;;;;;21.33;15.10;;;;;;;;;;5011524;28;20060;-67
2024/01/02 03:48:23;;;;;;;19.40;14.80;;;;;;;;;;5012311;28;20084;-67
2024/01/02 03:50:49;;;;;;;19.10;15.13;;;;;;;;;;5011853;28;20573;-67
2024/01/02 03:53:15;;;;;;;22.57;15.47;;;;;;;;;;5013460;28;20022;-67
2024/01/02 03:55:41;;;;;;;25.30;15.43;;;;;;;;;;5013419;28;20026;-67
2024/01/02 03:58:07;;;;;;;24.20;15.53;;;;;;;;;;5013385;28;20057;-67
2024/01/02 04:00:35;;;;;;;21.67;15.60;;;;;;;;;;5013530;28;20029;-67
2024/01/02 04:03:01;;;;;;;20.80;15.00;;;;;;;;;;5013245;28;20034;-67
2024/01/02 04:05:28;;;;;;;21.40;14.20;;;;;;;;;;5013235;28;20025;-67
2024/01/02 04:07:54;;;;;;;23.40;15.27;;;;;;;;;;5008616;28;20022;-67
2024/01/02 04:10:20;;;;;;;20.77;15.17;;;;;;;;;;5013096;28;20139;-67
2024/01/02 04:12:46;;;;;;;22.30;14.90;;;;;;;;;;5013411;28;20033;-67
2024/01/02 04:15:12;;;;;;;21.60;15.07;;;;;;;;;;5011737;28;20069;-67
2024/01/02 04:17:38;;;;;;;20.83;14.37;;;;;;;;;;5011605;28;20391;-67
2024/01/02 04:20:05;;;;;;;20.53;13.87;;;;;;;;;;5012987;28;20029;-67
2024/01/02 04:22:30;;;;;;;20.33;14.40;;;;;;;;;;5012692;28;20041;-67
2024/01/02 04:24:56;;;;;;;19.83;14.53;;;;;;;;;;5013172;28;20093;-67
2024/01/02 04:27:23;;;;;;;20.97;14.60;;;;;;;;;;5012998;28;20084;-67
2024/01/02 04:29:49;;;;;;;21.07;14.80;;;;;;;;;;5011617;28;20041;-67
2024/01/02 04:32:15;;;;;;;20.37;14.60;;;;;;;;;;5012736;28;20037;-67
2024/01/02 04:34:41;;;;;;;19.23;14.17;;;;;;;;;;5012933;28;20030;-67
2024/01/02 04:37:07;;;;;;;23.23;15.30;;;;;;;;;;5013119;28;20045;-67
2024/01/02 04:39:33;;;;;;;24.30;16.53;;;;;;;;;;5012375;28;20042;-68
2024/01/02 04:42:00;;;;;;;20.00;14.63;;;;;;;;;;5012491;28;20045;-67
2024/01/02 04:44:26;;;;;;;18.90;14.87;;;;;;;;;;5011415;28;20108;-68
2024/01/02 04:46:52;;;;;;;21.50;15.57;;;;;;;;;;5012629;28;20160;-67
2024/01/02 04:49:18;;;;;;;20.47;14.50;;;;;;;;;;5012356;28;20399;-67
2024/01/02 04:51:45;;;;;;;21.33;15.27;;;;;;;;;;5012560;28;20025;-66
2024/01/02 04:54:11;;;;;;;25.17;16.77;;;;;;;;;;5010123;28;20041;-67
2024/01/02 04:56:37;;;;;;;24.90;16.93;;;;;;;;;;5005417;28;20476;-67
2024/01/02 04:59:03;;;;;;;25.87;17.47;;;;;;;;;;5022777;28;20081;-67
2024/01/02 05:01:30;;;;;;;27.90;18.23;;;;;;;;;;5012257;28;20108;-67
2024/01/02 05:03:56;;;;;;;28.73;17.87;;;;;;;;;;5012486;28;20116;-67
2024/01/02 05:06:23;;;;;;;31.20;18.53;;;;;;;;;;5010418;28;20420;-67
2024/01/02 05:08:49;;;;;;;26.20;17.13;;;;;;;;;;5010848;28;20030;-67
2024/01/02 05:11:15;;;;;;;29.10;18.23;;;;;;;;;;5012356;28;20026;-67
2024/01/02 05:13:41;;;;;;;27.13;17.10;;;;;;;;;;5011970;28;20080;-67
2024/01/02 05:16:08;;;;;;;24.77;17.80;;;;;;;;;;5012237;28;20037;-67
2024/01/02 05:18:34;;;;;;;29.67;19.67;;;;;;;;;;5012142;28;20105;-67
2024/01/02 05:21:00;;;;;;;30.23;19.63;;;;;;;;;;5012010;28;20026;-67
2024/01/02 05:23:26;;;;;;;35.77;22.70;;;;;;;;;;5011820;28;20025;-67
2024/01/02 05:25:52;;;;;;;38.67;22.30;;;;;;;;;;5010602;28;20029;-67
2024/01/02 05:28:18;;;;;;;37.23;22.07;;;;;;;;;;5012073;28;20029;-67
2024/01/02 05:30:44;;;;;;;36.93;23.03;;;;;;;;;;5011837;28;20336;-67
2024/01/02 05:33:10;;;;;;;38.47;22.97;;;;;;;;;;5012059;28;20022;-67
2024/01/02 05:35:36;;;;;;;36.80;22.37;;;;;;;;;;5012120;28;20052;-67
2024/01/02 05:38:03;;;;;;;37.07;23.80;;;;;;;;;;5011607;28;20044;-67
2024/01/02 05:40:29;;;;;;;39.23;25.20;;;;;;;;;;5011999;28;20072;-67
2024/01/02 05:42:55;;;;;;;39.27;24.53;;;;;;;;;;5011901;28;20034;-67
2024/01/02 05:45:21;;;;;;;40.00;24.53;;;;;;;;;;5011701;28;20026;-67
2024/01/02 05:47:47;;;;;;;43.10;25.20;;;;;;;;;;5011941;28;20298;-67
2024/01/02 05:50:13;;;;;;;46.50;26.07;;;;;;;;;;5011744;28;20022;-67
2024/01/02 05:52:41;;;;;;;44.27;25.30;;;;;;;;;;5011853;28;20088;-67
2024/01/02 05:55:08;;;;;;;45.63;27.70;;;;;;;;;;5010465;28;20029;-67
2024/01/02 05:57:34;;;;;;;42.80;26.13;;;;;;;;;;5022520;28;20442;-67
2024/01/02 06:00:00;;;;;;;44.77;26.43;;;;;;;;;;5014638;28;20108;-67
2024/01/02 06:02:26;;;;;;;35.93;23.47;;;;;;;;;;5011661;28;20488;-67
2024/01/02 06:04:52;;;;;;;36.17;23.20;;;;;;;;;;5012696;28;20018;-67
2024/01/02 06:07:18;;;;;;;37.80;23.67;;;;;;;;;;5014290;28;20021;-67
2024/01/02 06:09:44;;;;;;;39.13;22.93;;;;;;;;;;5014239;28;20036;-67
2024/01/02 06:12:10;;;;;;;32.90;21.20;;;;;;;;;;5015314;28;20030;-67
2024/01/02 06:14:37;;;;;;;30.73;20.30;;;;;;;;;;5015395;28;20313;-67
2024/01/02 06:17:03;;;;;;;32.07;19.83;;;;;;;;;;5015250;28;20472;-68
2024/01/02 06:19:30;;;;;;;32.07;21.00;;;;;;;;;;5015305;28;20029;-67
2024/01/02 06:21:56;;;;;;;30.70;20.60;;;;;;;;;;5015269;28;20088;-68
2024/01/02 06:24:22;;;;;;;30.97;20.30;;;;;;;;;;5015170;28;20032;-67
2024/01/02 06:26:48;;;;;;;30.33;20.13;;;;;;;;;;5015216;28;20053;-67
2024/01/02 06:29:14;;;;;;;24.77;18.40;;;;;;;;;;5013692;28;20072;-67
2024/01/02 06:31:40;;;;;;;29.03;20.00;;;;;;;;;;5013678;28;20113;-68
2024/01/02 06:34:06;;;;;;;29.77;19.50;;;;;;;;;;5013700;28;20034;-68
2024/01/02 06:36:32;;;;;;;27.83;19.30;;;;;;;;;;5015053;28;20502;-68
2024/01/02 06:38:58;;;;;;;28.03;19.00;;;;;;;;;;5014776;28;20101;-67
2024/01/02 06:41:24;;;;;;;26.37;18.40;;;;;;;;;;5014825;28;20109;-67
2024/01/02 06:43:50;;;;;;;25.33;18.40;;;;;;;;;;5014679;28;20040;-68
2024/01/02 06:46:16;;;;;;;27.07;18.30;;;;;;;;;;5014997;28;20026;-67
2024/01/02 06:48:42;;;;;;;24.80;17.37;;;;;;;;;;5014687;28;20151;-67
2024/01/02 06:51:08;;;;;;;27.33;17.83;;;;;;;;;;5014529;28;20113;-67
2024/01/02 06:53:34;;;;;;;25.20;17.80;;;;;;;;;;5014669;28;20029;-67
2024/01/02 06:56:00;;;;;;;27.40;18.67;;;;;;;;;;5014443;28;20026;-68
2024/01/02 06:58:26;;;;;;;26.67;18.40;;;;;;;;;;5028613;28;20022;-67
2024/01/02 07:00:52;;;;;;;27.07;18.17;;;;;;;;;;5011912;28;20476;-67
2024/01/02 07:03:20;;;;;;;28.47;17.53;;;;;;;;;;5017708;28;20034;-68
2024/01/02 07:05:46;;;;;;;27.73;18.33;;;;;;;;;;5013720;28;20033;-67
2024/01/02 07:08:12;;;;;;;23.10;17.13;;;;;;;;;;5011320;28;20027;-67
2024/01/02 07:10:38;;;;;;;26.73;17.40;;;;;;;;;;5020550;28;20666;-67
2024/01/02 07:13:04;;;;;;;25.40;18.07;;;;;;;;;;5013910;28;20068;-68
2024/01/02 07:15:30;;;;;;;24.97;17.97;;;;;;;;;;5013823;28;20026;-67
2024/01/02 07:17:56;;;;;;;25.40;16.83;;;;;;;;;;5011623;28;20388;-67
2024/01/02 07:20:23;;;;;;;22.83;16.87;;;;;;;;;;5027198;28;20017;-67
2024/01/02 07:22:50;;;;;;;29.07;17.80;;;;;;;;;;5013994;28;20034;-67
2024/01/02 07:25:16;;;;;;;24.50;17.90;;;;;;;;;;5012647;28;20471;-67
2024/01/02 07:27:42;;;;;;;28.37;18.47;;;;;;;;;;5023469;28;20025;-67
2024/01/02 07:30:09;;;;;;;28.23;17.93;;;;;;;;;;5016622;28;20022;-68
2024/01/02 07:32:35;;;;;;;27.73;19.03;;;;;;;;;;5013934;28;20029;-67
2024/01/02 07:35:01;;;;;;;33.90;19.67;;;;;;;;;;5014007;28;20073;-68
2024/01/02 07:37:27;;;;;;;28.80;19.03;;;;;;;;;;5013659;28;20029;-67
2024/01/02 07:39:54;;;;;;;30.03;20.37;;;;;;;;;;5013946;28;20026;-67
2024/01/02 07:42:20;;;;;;;26.93;18.60;;;;;;;;;;5013798;28;20038;-67
2024/01/02 07:44:46;;;;;;;27.53;18.70;;;;;;;;;;5013644;28;20380;-67
2024/01/02 07:47:13;;;;;;;25.20;17.67;;;;;;;;;;5013529;28;20030;-67
2024/01/02 07:49:39;;;;;;;32.20;17.97;;;;;;;;;;5013794;28;20057;-67
2024/01/02 07:52:05;;;;;;;24.87;17.47;;;;;;;;;;5013669;28;20072;-67
2024/01/02 07:54:31;;;;;;;25.97;17.57;;;;;;;;;;5013586;28;20032;-67
2024/01/02 07:56:57;;;;;;;25.17;17.23;;;;;;;;;;5013432;28;20021;-67
2024/01/02 07:59:25;;;;;;;22.73;16.47;;;;;;;;;;5013167;28;20036;-67
2024/01/02 08:01:51;;;;;;;23.23;16.57;;;;;;;;;;5013204;28;20041;-67
2024/01/02 08:04:17;;;;;;;23.87;17.57;;;;;;;;;;5013513;28;20017;-67
2024/01/02 08:06:43;;;;;;;26.23;17.43;;;;;;;;;;5013161;28;20108;-68
2024/01/02 08:09:09;;;;;;;24.73;18.23;;;;;;;;;;5013410;28;20033;-67
2024/01/02 08:11:37;;;;;;;26.13;17.60;;;;;;;;;;5013226;28;20092;-67
2024/01/02 08:14:03;;;;;;;26.37;19.10;;;;;;;;;;5013001;28;20030;-66
2024/01/02 08:16:29;;;;;;;26.77;18.73;;;;;;;;;;5013172;28;20021;-67
2024/01/02 08:18:56;;;;;;;28.70;18.93;;;;;;;;;;5014422;28;20105;-67
2024/01/02 08:21:22;;;;;;;26.73;18.43;;;;;;;;;;5013094;28;20057;-68
2024/01/02 08:23:48;;;;;;;24.10;17.03;;;;;;;;;;5013392;28;20034;-68
2024/01/02 08:26:14;;;;;;;25.13;18.60;;;;;;;;;;5012709;28;20026;-67
2024/01/02 08:28:40;;;;;;;25.97;18.03;;;;;;;;;;5019997;28;20029;-68
2024/01/02 08:31:06;;;;;;;29.10;18.97;;;;;;;;;;5019310;28;20084;-68
2024/01/02 08:33:32;;;;;;;28.07;18.37;;;;;;;;;;5011143;28;20375;-68
2024/01/02 08:35:58;;;;;;;38.93;20.80;;;;;;;;;;5012848;28;20109;-68
2024/01/02 08:38:24;;;;;;;36.30;21.93;;;;;;;;;;5012343;28;20049;-68
2024/01/02 08:40:50;;;;;;;36.83;23.80;;;;;;;;;;5012680;28;20096;-68
2024/01/02 08:43:17;;;;;;;33.77;22.20;;;;;;;;;;5012518;28;20065;-68
2024/01/02 08:45:46;;;;;;;39.20;22.90;;;;;;;;;;5012518;28;20068;-68
2024/01/02 08:48:12;;;;;;;37.20;23.33;;;;;;;;;;5012527;28;20471;-68
2024/01/02 08:50:42;;;;;;;33.67;19.57;;;;;;;;;;5011416;28;20018;-68
2024/01/02 08:53:09;;;;;;;29.67;19.90;;;;;;;;;;5012281;28;20022;-67
2024/01/02 08:55:35;;;;;;;34.23;21.47;;;;;;;;;;5012552;28;20104;-68
2024/01/02 08:58:03;;;;;;;28.50;21.37;;;;;;;;;;5010969;28;20472;-68
2024/01/02 09:00:29;;;;;;;24.93;19.53;;;;;;;;;;5012240;28;20026;-68
2024/01/02 09:03:28;;;;;;;27.73;18.90;;;;;;;;;;5012203;28;20034;-68
2024/01/02 09:05:53;;;;;;;26.10;17.83;;;;;;;;;;4997415;28;20025;-68
2024/01/02 09:08:19;;;;;;;29.17;20.10;;;;;;;;;;5012487;28;20457;-68
2024/01/02 09:10:45;;;;;;;27.17;19.17;;;;;;;;;;5012100;28;20049;-68
2024/01/02 09:13:12;;;;;;;27.53;20.43;;;;;;;;;;5010769;28;20133;-67
2024/01/02 09:15:40;;;;;;;29.87;19.87;;;;;;;;;;5011956;28;20079;-68
2024/01/02 09:18:06;;;;;;;30.77;19.63;;;;;;;;;;5013513;28;20087;-68
2024/01/02 09:20:32;;;;;;;32.60;19.73;;;;;;;;;;5012298;28;20013;-68
2024/01/02 09:22:58;;;;;;;34.63;21.03;;;;;;;;;;5010589;28;20204;-68
2024/01/02 09:25:26;;;;;;;29.23;19.00;;;;;;;;;;5011925;28;20140;-68
2024/01/02 09:27:55;;;;;;;32.60;20.83;;;;;;;;;;5011958;28;20388;-68
2024/01/02 09:30:23;;;;;;;32.87;20.33;;;;;;;;;;5011810;28;20520;-68
2024/01/02 09:32:49;;;;;;;34.03;22.43;;;;;;;;;;5010449;28;20332;-68
2024/01/02 09:35:16;;;;;;;29.93;20.63;;;;;;;;;;5011689;28;20014;-68
2024/01/02 09:37:42;;;;;;;36.83;21.90;;;;;;;;;;5011404;28;20048;-68
2024/01/02 09:40:14;;;;;;;31.10;20.80;;;;;;;;;;5009713;28;20480;-68
2024/01/02 09:42:45;;;;;;;32.27;21.27;;;;;;;;;;5011803;28;20117;-68
2024/01/02 09:45:11;;;;;;;35.37;22.33;;;;;;;;;;5011628;28;20014;-68
2024/01/02 09:47:53;;;;;;;32.53;21.93;;;;;;;;;;5011566;28;20049;-69
2024/01/02 09:50:34;;;;;;;36.07;22.40;;;;;;;;;;5010345;28;20538;-68
2024/01/02 09:53:09;;;;;;;35.40;21.70;;;;;;;;;;5011605;28;20024;-68
2024/01/02 09:55:38;;;;;;;33.90;21.80;;;;;;;;;;5011509;28;20095;-68
2024/01/02 09:58:10;;;;;;;39.70;23.87;;;;;;;;;;5011676;28;20448;-68
2024/01/02 10:00:53;;;;;;;38.73;23.80;;;;;;;;;;5010190;28;20018;-68
2024/01/02 10:03:22;;;;;;;38.70;23.47;;;;;;;;;;5010306;28;20128;-68
2024/01/02 10:05:49;;;;;;;34.67;22.37;;;;;;;;;;5011785;28;20029;-68
2024/01/02 10:08:15;;;;;;;37.37;22.50;;;;;;;;;;5011570;28;20026;-68
2024/01/02 10:10:54;;;;;;;37.27;23.80;;;;;;;;;;5011448;28;20026;-68
2024/01/02 10:13:24;;;;;;;34.83;22.77;;;;;;;;;;5011531;28;20034;-68
2024/01/02 10:16:06;;;;;;;37.03;23.67;;;;;;;;;;5009173;28;20407;-68
2024/01/02 10:19:10;;;;;;;41.20;24.93;;;;;;;;;;5018745;28;20104;-68
2024/01/02 10:21:46;;;;;;;43.70;25.37;;;;;;;;;;4970807;28;20031;-69
2024/01/02 10:24:26;;;;;;;40.57;23.70;;;;;;;;;;4972091;28;20035;-68
2024/01/02 10:26:58;;;;;;;38.13;24.60;;;;;;;;;;4992749;28;20034;-68
2024/01/02 10:29:32;;;;;;;40.43;26.93;;;;;;;;;;5006576;28;20354;-68
2024/01/02 10:32:11;;;;;;;43.50;27.03;;;;;;;;;;5002217;28;20022;-68
2024/01/02 10:34:41;;;;;;;44.83;26.20;;;;;;;;;;5011222;28;20026;-68
2024/01/02 10:37:07;;;;;;;49.20;28.07;;;;;;;;;;5010073;28;20367;-68
2024/01/02 10:40:02;;;;;;;55.37;29.63;;;;;;;;;;5009768;28;20046;-68
2024/01/02 10:42:31;;;;;;;52.05;29.65;;;;;;;;;;5011293;28;20113;-68
2024/01/02 10:45:10;;;;;;;52.80;29.43;;;;;;;;;;5011421;28;20420;-68
2024/01/02 10:47:48;;;;;;;51.50;28.33;;;;;;;;;;5011215;28;20041;-68
2024/01/02 10:50:19;;;;;;;51.53;29.60;;;;;;;;;;4997180;28;20050;-68
2024/01/02 10:53:08;;;;;;;49.83;29.87;;;;;;;;;;5013421;28;20409;-68
2024/01/02 10:55:43;;;;;;;50.90;29.80;;;;;;;;;;5003903;28;20028;-68
2024/01/02 10:58:17;;;;;;;48.35;28.17;;;;;;;;;;5014821;28;20022;-67
2024/01/02 11:00:48;;;;;;;62.75;31.70;;;;;;;;;;5014701;28;20045;-68
2024/01/02 11:03:16;;;;;;;48.83;28.43;;;;;;;;;;5014345;28;20065;-68
2024/01/02 11:05:46;;;;;;;49.67;28.83;;;;;;;;;;5022559;28;20086;-68
2024/01/02 11:08:15;;;;;;;43.97;26.10;;;;;;;;;;5019305;28;20475;-68
2024/01/02 11:11:01;;;;;;;45.53;27.50;;;;;;;;;;5007758;28;20384;-68
2024/01/02 11:13:28;;;;;;;43.70;26.70;;;;;;;;;;5010139;28;20063;-68
2024/01/02 11:16:03;;;;;;;40.67;25.93;;;;;;;;;;5013043;28;20450;-68
2024/01/02 11:18:33;;;;;;;41.78;24.27;;;;;;;;;;5020288;28;20033;-68
2024/01/02 11:21:11;;;;;;;40.10;24.03;;;;;;;;;;5014622;28;20361;-68
2024/01/02 11:23:40;;;;;;;43.60;25.83;;;;;;;;;;5010258;28;20030;-67
2024/01/02 11:26:07;;;;;;;42.83;25.77;;;;;;;;;;5011056;28;20025;-67
2024/01/02 11:28:34;;;;;;;44.37;26.77;;;;;;;;;;5014511;28;20113;-68
2024/01/02 11:31:02;;;;;;;40.27;25.43;;;;;;;;;;5022145;28;20351;-68
2024/01/02 11:33:47;;;;;;;40.67;25.93;;;;;;;;;;5021568;28;20034;-68
2024/01/02 11:36:34;;;;;;;44.97;26.60;;;;;;;;;;5000934;28;20014;-68
2024/01/02 11:39:08;;;;;;;39.90;26.53;;;;;;;;;;5023011;28;20059;-68
2024/01/02 11:41:37;;;;;;;43.07;26.10;;;;;;;;;;5015074;28;20038;-68
2024/01/02 11:44:18;;;;;;;41.63;25.53;;;;;;;;;;5021445;28;20412;-68
2024/01/02 11:46:47;;;;;;;42.80;26.30;;;;;;;;;;5017809;28;20061;-68
2024/01/02 11:49:17;;;;;;;41.37;25.97;;;;;;;;;;5024091;28;20349;-68
2024/01/02 11:51:51;;;;;;;36.73;25.80;;;;;;;;;;5011958;28;20030;-68
2024/01/02 11:54:32;;;;;;;41.53;27.10;;;;;;;;;;5013436;28;20026;-68
2024/01/02 11:56:58;;;;;;;39.80;26.10;;;;;;;;;;5013402;28;20026;-68
2024/01/02 11:59:30;;;;;;;38.70;26.07;;;;;;;;;;5013270;28;20021;-69
2024/01/02 12:02:16;;;;;;;38.77;25.33;;;;;;;;;;5011280;28;20038;-68
2024/01/02 12:04:57;;;;;;;34.73;23.53;;;;;;;;;;5022047;28;20116;-68
2024/01/02 12:07:26;;;;;;;41.60;26.90;;;;;;;;;;5014819;28;20029;-68
2024/01/02 12:09:53;;;;;;;40.13;27.10;;;;;;;;;;5013199;28;20052;-68
2024/01/02 12:12:37;;;;;;;41.23;27.20;;;;;;;;;;5013167;28;20022;-68
2024/01/02 12:15:38;;;;;;;38.72;26.33;;;;;;;;;;5011724;28;20018;-68
2024/01/02 12:18:06;;;;;;;39.53;26.77;;;;;;;;;;4972016;28;20031;-68
2024/01/02 12:20:56;;;;;;;39.67;27.17;;;;;;;;;;5004939;28;20030;-68
2024/01/02 12:23:23;;;;;;;32.90;23.13;;;;;;;;;;5007781;28;20052;-68
2024/01/02 12:25:50;;;;;;;37.77;25.87;;;;;;;;;;5013022;28;20380;-68
2024/01/02 12:28:18;;;;;;;37.77;26.80;;;;;;;;;;5013087;28;20329;-68
2024/01/02 12:31:04;;;;;;;28.97;21.90;;;;;;;;;;5012694;28;20021;-68
2024/01/02 12:33:30;;;;;;;34.27;23.57;;;;;;;;;;5012749;28;20025;-68
2024/01/02 12:36:05;;;;;;;31.40;20.90;;;;;;;;;;5012667;28;20029;-68
2024/01/02 12:38:39;;;;;;;27.00;20.70;;;;;;;;;;5020312;28;20103;-68
2024/01/02 12:41:09;;;;;;;30.83;21.07;;;;;;;;;;5017796;28;20026;-68
2024/01/02 12:43:38;;;;;;;32.33;22.43;;;;;;;;;;5012738;28;20030;-68
2024/01/02 12:46:13;;;;;;;29.37;22.37;;;;;;;;;;5012624;28;20091;-68
2024/01/02 12:48:41;;;;;;;;;;;;;;;;;;5000660;28;20111;-68
2024/01/02 12:51:11;;;;;;;27.13;19.07;;;;;;;;;;5012485;28;20360;-69
2024/01/02 12:53:40;;;;;;;25.27;18.80;;;;;;;;;;4998735;28;20033;-68
2024/01/02 12:56:08;;;;;;;26.70;18.70;;;;;;;;;;5012509;28;20026;-68
2024/01/02 12:58:34;;;;;;;24.63;18.07;;;;;;;;;;5011284;28;20029;-68
2024/01/02 13:01:01;;;;;;;30.70;18.80;;;;;;;;;;5003560;28;20033;-68
2024/01/02 13:03:30;;;;;;;26.87;18.87;;;;;;;;;;5012174;28;20123;-68
2024/01/02 13:05:56;;;;;;;24.47;18.30;;;;;;;;;;5012036;28;20080;-68
2024/01/02 13:08:22;;;;;;;24.63;17.60;;;;;;;;;;5012355;28;20491;-68
2024/01/02 13:10:50;;;;;;;24.40;18.10;;;;;;;;;;5012198;28;20116;-68
2024/01/02 13:13:16;;;;;;;26.03;17.50;;;;;;;;;;5001648;28;20019;-69
2024/01/02 13:15:50;;;;;;;22.07;16.87;;;;;;;;;;4995058;28;20030;-68
2024/01/02 13:18:18;;;;;;;22.00;15.87;;;;;;;;;;5010862;28;20037;-68
2024/01/02 13:20:44;;;;;;;24.40;17.10;;;;;;;;;;5010715;28;20030;-68
2024/01/02 13:23:10;;;;;;;26.37;18.23;;;;;;;;;;5011984;28;20069;-68
2024/01/02 13:25:39;;;;;;;23.87;17.53;;;;;;;;;;5011867;28;20067;-68
2024/01/02 13:28:24;;;;;;;22.73;17.50;;;;;;;;;;5011962;28;20051;-68
2024/01/02 13:30:50;;;;;;;21.70;17.92;;;;;;;;;;5011875;28;20061;-68
2024/01/02 13:33:21;;;;;;;22.63;15.80;;;;;;;;;;5010442;28;20376;-68
2024/01/02 13:35:59;;;;;;;22.50;16.17;;;;;;;;;;5000916;28;20019;-68
2024/01/02 13:38:26;;;;;;;22.07;16.70;;;;;;;;;;5018578;28;20044;-68
2024/01/02 13:41:04;;;;;;;20.87;15.63;;;;;;;;;;5018580;28;20033;-68
2024/01/02 13:43:32;;;;;;;18.47;14.90;;;;;;;;;;4998742;28;20383;-68
2024/01/02 13:46:10;;;;;;;20.58;16.10;;;;;;;;;;5010530;28;20018;-68
2024/01/02 13:48:38;;;;;;;23.77;16.50;;;;;;;;;;4996258;28;20029;-68
2024/01/02 13:51:04;;;;;;;23.40;15.73;;;;;;;;;;5005458;28;20080;-68
2024/01/02 13:53:31;;;;;;;19.50;15.07;;;;;;;;;;5002242;28;20033;-68
2024/01/02 13:55:57;;;;;;;19.93;16.03;;;;;;;;;;5011900;28;20145;-68
2024/01/02 13:58:23;;;;;;;19.63;15.23;;;;;;;;;;5010763;28;20022;-67
2024/01/02 14:00:49;;;;;;;21.15;15.55;;;;;;;;;;5011502;28;20428;-68
2024/01/02 14:03:19;;;;;;;18.95;15.10;;;;;;;;;;5011553;28;20033;-68
2024/01/02 14:05:56;;;;;;;23.67;15.27;;;;;;;;;;5011549;28;20026;-68
2024/01/02 14:08:22;;;;;;;19.47;15.13;;;;;;;;;;5011564;28;20033;-68
2024/01/02 14:10:48;;;;;;;18.97;15.37;;;;;;;;;;5011630;28;20030;-68
2024/01/02 14:13:31;;;;;;;23.00;16.05;;;;;;;;;;5011520;28;20029;-68
2024/01/02 14:16:01;;;;;;;19.20;14.83;;;;;;;;;;5000119;28;20306;-68
2024/01/02 14:18:30;;;;;;;21.30;14.77;;;;;;;;;;5011575;28;20038;-68
2024/01/02 14:21:06;;;;;;;23.00;15.95;;;;;;;;;;5011864;28;20022;-68
2024/01/02 14:23:50;;;;;;;20.40;16.20;;;;;;;;;;5006136;28;20461;-68
2024/01/02 14:26:20;;;;;;;23.73;17.03;;;;;;;;;;5013113;28;20170;-68
2024/01/02 14:29:00;;;;;;;24.30;17.50;;;;;;;;;;5015132;28;20430;-67
2024/01/02 14:31:41;;;;;;;25.48;18.33;;;;;;;;;;5013705;28;20053;-68
2024/01/02 14:34:26;;;;;;;23.83;18.43;;;;;;;;;;5015254;28;20017;-67